Keokuk Municipal, IA

12:48 PM CDT on June 03, 2015 (GMT -0500)
Keokuk Municipal | | Change Station
CLOSE
Current Station
Airport
Location: Keokuk,
Elevation: 673 ft
Nearby Weather Stations

Elev 673 ft 40.46 °N, 91.43 °W | Updated 13 minutes ago

Mostly Cloudy
Mostly Cloudy
70 °F
Feels Like 70 °F
N
10
Wind Variable Wind from South
Gusts 17 mph

Today
High -- | Low -- °F
--% Chance of Precip.
Yesterday
High -- | Low -- °F
Precip. -- in
5:36 AM 8:31 PM
Full, 99% visible
Pressure 30.00 in
Visibility 10.0 miles
Clouds Few 2300 ft
Scattered Clouds 3000 ft
Mostly Cloudy 4900 ft
Dew Point 61 °F
Humidity 73%
Rainfall 0.00 in
Snow Depth Not available.
UV 6 out of 12
Pollen 7.50 out of 12
Air Quality Not available.
Flu Activity No Activity
METAR KEOK 031735Z AUTO 17009G15KT 10SM FEW023 SCT030 BKN049 21/16 A3000 RMK AO2

More Conditions Fewer Conditions

Pressure 30.00 in
Visibility 10.0 miles
Clouds Few 2300 ft
Scattered Clouds 3000 ft
Mostly Cloudy 4900 ft
Dew Point 61 °F
Humidity 73%
Rainfall 0.00 in
Snow Depth Not available.
UV 6 out of 12
Pollen 7.50 out of 12
Air Quality Not available.
Flu Activity No Activity
METAR KEOK 031735Z AUTO 17009G15KT 10SM FEW023 SCT030 BKN049 21/16 A3000 RMK AO2

More Conditions Fewer Conditions

10-Day Weather Forecast

×

Almanac

Astronomy

Jun. 03, 2015 Rise Set
Actual Time
Civil Twilight
Nautical Twilight
Astronomical Twilight
Moon
Length of Visible Light
Length of Day
Tomorrow will be .
, % of the Moon is Illuminated

Today's Extremes

State Highs State Lows

Community

WunderPhotos

Upload Photos

1,826,264 photos uploaded!

WunderBlogs® & News

Nearby

Air Quality

  Air Quality AQ Index Pollutant
Not available.

Snow Depth

Station Depth Elevation

Earthquake Activity

City Distance Mag. Time & Date
Minimum magnitude displayed is 2.5.

Coastal Water Temperatures

Place Temperature

Stations

Nearby Weather Stations

Station Location Temp. Windchill Dew Point Humidity Wind Precip. Elev Updated Type